Time;durP1;ratioP1;P1;durP2;ratioP2;P2;SDS_P1;SDS_P2;PMS_P1;PMS_P2;Temp;Humidity;BMP_temperature;BMP_pressure;BME280_temperature;BME280_humidity;BME280_pressure;Samples;Min_cycle;Max_cycle;Signal;HPM_P1;HPM_P2
2021/11/06 00:02:02;;;;;;;6.15;4.20;;;;;;;21.45;39.86;102417.47;4956276;29;20062;-76
2021/11/06 00:04:27;;;;;;;7.05;4.35;;;;;;;21.30;40.16;102413.38;4956224;28;20059;-78
2021/11/06 00:06:53;;;;;;;6.75;4.05;;;;;;;21.30;40.17;102422.53;4956296;28;20066;-75
2021/11/06 00:09:20;;;;;;;5.82;3.95;;;;;;;21.46;39.78;102408.78;4956160;28;20031;-77
2021/11/06 00:11:45;;;;;;;7.13;4.07;;;;;;;21.55;39.62;102403.09;4956041;29;20134;-78
2021/11/06 00:14:11;;;;;;;6.03;4.55;;;;;;;21.48;39.83;102400.09;4938854;29;20121;-76
2021/11/06 00:16:37;;;;;;;7.53;4.18;;;;;;;21.53;39.73;102394.28;4956026;29;20039;-75
2021/11/06 00:19:02;;;;;;;7.18;4.28;;;;;;;21.17;40.34;102393.09;4955987;28;20027;-79
2021/11/06 00:21:28;;;;;;;5.78;4.75;;;;;;;21.44;39.80;102391.63;4955908;29;20027;-76
2021/11/06 00:23:54;;;;;;;4.78;3.63;;;;;;;21.30;40.17;102399.50;4955735;28;20167;-78
2021/11/06 00:26:19;;;;;;;6.03;4.70;;;;;;;21.42;39.84;102382.81;4955934;29;20028;-75
2021/11/06 00:28:45;;;;;;;8.63;5.05;;;;;;;21.53;39.60;102388.72;4955754;29;20043;-76
2021/11/06 00:31:11;;;;;;;4.88;4.38;;;;;;;21.45;39.79;102379.34;4955920;28;20023;-76
2021/11/06 00:33:36;;;;;;;7.15;5.30;;;;;;;21.40;39.80;102381.56;4955685;29;20024;-76
2021/11/06 00:36:02;;;;;;;10.27;5.35;;;;;;;20.94;40.82;102395.47;4955646;29;20119;-79
2021/11/06 00:38:28;;;;;;;8.82;4.85;;;;;;;21.23;40.29;102385.31;4938351;29;20026;-75
2021/11/06 00:40:54;;;;;;;8.50;5.40;;;;;;;21.29;39.91;102390.34;4938049;29;20028;-78
2021/11/06 00:43:19;;;;;;;7.07;5.50;;;;;;;21.38;39.87;102384.66;4955107;28;20027;-75
2021/11/06 00:45:46;;;;;;;9.98;6.28;;;;;;;21.35;39.78;102371.47;4955107;28;20067;-75
2021/11/06 00:48:11;;;;;;;7.70;5.93;;;;;;;21.27;39.96;102377.91;4938144;29;20031;-75
2021/11/06 00:50:37;;;;;;;8.25;5.65;;;;;;;21.34;39.73;102375.41;4955628;29;20027;-75
2021/11/06 00:53:03;;;;;;;7.10;5.82;;;;;;;21.36;39.92;102367.53;4955358;29;20087;-77
2021/11/06 00:55:29;;;;;;;8.00;6.32;;;;;;;21.38;39.57;102361.59;4955325;29;20060;-75
2021/11/06 00:57:54;;;;;;;9.20;6.57;;;;;;;21.40;39.76;102356.53;4955309;29;20041;-75
2021/11/06 01:00:20;;;;;;;8.15;6.40;;;;;;;21.39;39.77;102354.91;4955319;29;20027;-76
2021/11/06 01:02:48;;;;;;;10.10;6.63;;;;;;;21.08;40.37;102356.22;4954603;29;20031;-75
2021/11/06 01:05:14;;;;;;;10.85;7.10;;;;;;;;;;4937838;29;20082;-75
2021/11/06 01:07:40;;;;;;;7.25;6.55;;;;;;;21.28;40.00;102354.56;4955104;28;20019;-76
2021/11/06 01:10:08;;;;;;;7.57;6.38;;;;;;;21.22;40.03;102350.34;4954517;29;20071;-76
2021/11/06 01:12:34;;;;;;;9.25;6.70;;;;;;;21.29;39.75;102350.59;4953752;29;20027;-75
2021/11/06 01:14:59;;;;;;;11.20;6.95;;;;;;;21.17;40.18;102347.81;4954931;29;20030;-76
2021/11/06 01:17:25;;;;;;;9.75;7.13;;;;;;;21.18;40.05;102346.66;4954838;29;20038;-76
2021/11/06 01:19:51;;;;;;;9.25;6.40;;;;;;;21.08;40.41;102347.09;4954884;29;20437;-75
2021/11/06 01:22:17;;;;;;;9.02;6.60;;;;;;;21.23;39.87;102346.41;4954636;29;20114;-75
2021/11/06 01:24:42;;;;;;;9.45;6.47;;;;;;;21.15;39.93;102342.56;4954806;28;20062;-76
2021/11/06 01:27:11;;;;;;;10.13;7.75;;;;;;;21.23;39.96;102340.84;4954547;29;20056;-80
2021/11/06 01:29:38;;;;;;;13.27;7.77;;;;;;;21.29;39.73;102333.94;4954482;29;20030;-79
2021/11/06 01:32:06;;;;;;;11.10;8.68;;;;;;;21.22;40.00;102328.09;4954702;29;20027;-77
2021/11/06 01:34:35;;;;;;;9.18;8.20;;;;;;;21.23;39.70;102322.19;4954548;29;20106;-79
2021/11/06 01:37:01;;;;;;;11.45;7.40;;;;;;;21.14;40.06;102320.69;4954471;29;20054;-75
2021/11/06 01:39:27;;;;;;;13.50;8.27;;;;;;;21.17;39.81;102314.47;4954593;29;20101;-76
2021/11/06 01:41:53;;;;;;;11.00;7.35;;;;;;;21.01;40.27;102317.13;4954445;28;20027;-79
2021/11/06 01:44:18;;;;;;;13.23;8.95;;;;;;;21.14;39.96;102315.13;4954372;28;20110;-76
2021/11/06 01:46:44;;;;;;;8.63;7.47;;;;;;;21.14;39.85;102312.34;4937210;29;20034;-79
2021/11/06 01:49:10;;;;;;;13.27;8.60;;;;;;;20.94;40.33;102316.88;4954484;28;20031;-76
2021/11/06 01:51:36;;;;;;;11.15;8.98;;;;;;;20.99;40.36;102302.72;4954409;29;20039;-75
2021/11/06 01:54:01;;;;;;;7.88;6.75;;;;;;;20.99;40.35;102303.53;4936451;29;20039;-77
2021/11/06 01:56:27;;;;;;;9.02;6.60;;;;;;;20.81;40.96;102302.16;4954290;29;20023;-80
2021/11/06 01:58:53;;;;;;;10.25;7.13;;;;;;;20.82;40.81;102301.00;4954200;28;20030;-77
2021/11/06 02:01:19;;;;;;;7.88;6.03;;;;;;;20.98;40.68;102292.78;4954185;29;20059;-78
2021/11/06 02:03:45;;;;;;;7.90;6.47;;;;;;;20.88;40.86;102291.28;4953994;28;20045;-79
2021/11/06 02:06:11;;;;;;;6.80;6.10;;;;;;;20.86;41.06;102287.22;4954053;29;20360;-76
2021/11/06 02:08:37;;;;;;;7.47;5.88;;;;;;;20.98;40.81;102287.22;4954236;28;20030;-75
2021/11/06 02:11:05;;;;;;;7.47;6.25;;;;;;;21.14;40.44;102282.59;4954030;28;20040;-76
2021/11/06 02:13:32;;;;;;;8.65;6.65;;;;;;;21.18;40.45;102277.97;4954169;28;20434;-77
2021/11/06 02:15:57;;;;;;;8.30;7.15;;;;;;;21.08;40.66;102274.81;4954088;28;20029;-76
2021/11/06 02:18:23;;;;;;;8.30;7.20;;;;;;;21.28;40.29;102276.72;4953945;29;20027;-76
2021/11/06 02:20:59;;;;;;;8.45;7.15;;;;;;;21.05;40.71;102279.13;4936714;29;20066;-75
2021/11/06 02:23:25;;;;;;;8.38;7.10;;;;;;;21.40;39.94;102267.56;4936567;29;20078;-80
2021/11/06 02:25:50;;;;;;;8.88;7.18;;;;;;;21.41;39.92;102266.41;4953992;29;20093;-80
2021/11/06 02:28:16;;;;;;;10.35;8.55;;;;;;;21.32;40.22;102256.22;4953670;29;20539;-80
2021/11/06 02:30:42;;;;;;;12.93;9.52;;;;;;;21.37;40.01;102262.69;4953808;29;20027;-79
2021/11/06 02:33:09;;;;;;;12.93;9.02;;;;;;;21.28;40.26;102262.81;4953921;29;20389;-80
2021/11/06 02:35:35;;;;;;;11.82;9.63;;;;;;;21.35;40.02;102257.47;4953902;29;20027;-79
2021/11/06 02:38:00;;;;;;;11.07;9.45;;;;;;;21.60;39.60;102256.25;4954090;28;20034;-76
2021/11/06 02:40:26;;;;;;;10.45;9.45;;;;;;;21.50;39.70;102255.94;4954042;28;20537;-76
2021/11/06 02:42:52;;;;;;;10.45;8.82;;;;;;;21.48;39.84;102244.38;4953906;29;20082;-76
2021/11/06 02:45:20;;;;;;;11.65;9.85;;;;;;;21.25;40.20;102241.25;4954009;28;20054;-78
2021/11/06 02:47:46;;;;;;;11.18;10.00;;;;;;;21.35;40.20;102243.56;4953977;29;20110;-75
2021/11/06 02:50:12;;;;;;;11.27;9.38;;;;;;;21.29;40.31;102236.63;4953734;28;20035;-75
2021/11/06 02:52:41;;;;;;;12.60;10.35;;;;;;;21.42;40.05;102241.00;4953967;29;20486;-75
2021/11/06 02:55:06;;;;;;;11.43;9.93;;;;;;;21.37;40.12;102235.69;4954034;29;20047;-76
2021/11/06 02:57:32;;;;;;;12.32;9.98;;;;;;;21.45;39.84;102231.97;4953928;28;20059;-76
2021/11/06 02:59:57;;;;;;;10.65;9.43;;;;;;;21.37;39.84;102216.22;4953902;28;20374;-76
2021/11/06 03:02:24;;;;;;;12.45;9.88;;;;;;;21.19;40.61;102214.84;4953861;29;20074;-75
2021/11/06 03:04:50;;;;;;;10.90;8.85;;;;;;;20.99;40.81;102220.19;4954673;28;20426;-76
2021/11/06 03:07:16;;;;;;;11.65;8.27;;;;;;;21.35;40.14;102201.88;4957350;28;20106;-75
2021/11/06 03:09:42;;;;;;;10.93;8.38;;;;;;;21.31;39.85;102199.00;4957024;28;20027;-75
2021/11/06 03:12:15;;;;;;;11.68;8.73;;;;;;;21.34;40.02;102205.81;4957274;29;20109;-76
2021/11/06 03:14:44;;;;;;;9.18;8.05;;;;;;;21.39;39.87;102199.22;4940031;29;20061;-76
2021/11/06 03:17:10;;;;;;;8.50;7.35;;;;;;;21.32;39.94;102199.81;4957214;29;20144;-76
2021/11/06 03:19:36;;;;;;;9.07;6.40;;;;;;;21.34;39.79;102194.69;4957127;28;20028;-75
2021/11/06 03:22:03;;;;;;;8.52;7.13;;;;;;;21.30;40.00;102190.97;4957220;28;20045;-75
2021/11/06 03:24:28;;;;;;;10.07;6.63;;;;;;;21.38;39.86;102186.44;4956921;29;20082;-75
2021/11/06 03:26:54;;;;;;;6.53;5.60;;;;;;;21.14;40.39;102182.53;4956404;28;20035;-76
2021/11/06 03:29:20;;;;;;;6.82;6.13;;;;;;;20.98;40.58;102178.84;4956038;28;20038;-78
2021/11/06 03:31:46;;;;;;;6.65;5.65;;;;;;;21.18;40.19;102171.53;4956908;29;20031;-76
2021/11/06 03:34:11;;;;;;;8.13;5.60;;;;;;;21.29;39.98;102172.69;4956863;28;20389;-75
2021/11/06 03:36:36;;;;;;;8.68;5.50;;;;;;;;;;4956786;29;20023;-75
2021/11/06 03:39:03;;;;;;;6.85;5.40;;;;;;;21.35;39.75;102164.91;4956753;28;20034;-76
2021/11/06 03:41:29;;;;;;;7.55;5.38;;;;;;;;;;4956723;28;20032;-75
2021/11/06 03:43:54;;;;;;;6.53;5.70;;;;;;;21.36;39.84;102150.66;4956565;29;20042;-79
2021/11/06 03:46:20;;;;;;;5.22;4.72;;;;;;;21.36;39.61;102149.84;4956615;29;20114;-75
2021/11/06 03:48:46;;;;;;;6.82;5.03;;;;;;;21.43;39.76;102147.28;4956602;28;20019;-76
2021/11/06 03:51:12;;;;;;;5.55;4.95;;;;;;;21.28;39.98;102149.63;4956528;28;20023;-76
2021/11/06 03:53:38;;;;;;;6.28;4.78;;;;;;;21.25;39.99;102141.19;4956488;29;20082;-76
2021/11/06 03:56:03;;;;;;;5.18;4.30;;;;;;;21.37;39.58;102146.72;4956483;28;20426;-76
2021/11/06 03:58:29;;;;;;;6.50;4.45;;;;;;;21.38;39.77;102142.78;4956385;28;20019;-75
2021/11/06 04:00:55;;;;;;;6.45;4.57;;;;;;;21.30;39.61;102136.19;4956358;29;20042;-79
2021/11/06 04:03:21;;;;;;;6.57;4.55;;;;;;;21.31;39.80;102137.84;4956246;29;20035;-76
2021/11/06 04:05:46;;;;;;;4.68;4.18;;;;;;;21.36;39.67;102142.31;4956318;28;20031;-76
2021/11/06 04:08:12;;;;;;;9.82;5.07;;;;;;;21.36;39.70;102133.16;4956240;28;20027;-76
2021/11/06 04:10:38;;;;;;;6.20;5.07;;;;;;;21.46;39.41;102129.88;4955997;28;20122;-79
2021/11/06 04:13:03;;;;;;;6.22;4.97;;;;;;;21.38;39.66;102128.88;4956200;28;20035;-75
2021/11/06 04:15:29;;;;;;;6.63;5.20;;;;;;;21.35;39.66;102123.22;4955412;28;20152;-75
2021/11/06 04:17:55;;;;;;;7.53;4.97;;;;;;;21.29;39.55;102122.66;4953134;28;20409;-77
2021/11/06 04:20:22;;;;;;;7.13;4.88;;;;;;;21.28;39.75;102118.25;4955970;29;20027;-78
2021/11/06 04:22:50;;;;;;;7.28;5.15;;;;;;;21.40;39.49;102121.00;4955965;29;20090;-78
2021/11/06 04:25:17;;;;;;;7.95;4.70;;;;;;;21.47;39.43;102117.63;4956120;29;20035;-79
2021/11/06 04:27:43;;;;;;;8.07;4.00;;;;;;;21.46;39.46;102113.19;4955938;29;20029;-77
2021/11/06 04:30:09;;;;;;;6.63;4.00;;;;;;;21.39;39.47;102116.63;4955892;29;20106;-78
2021/11/06 04:32:34;;;;;;;6.95;4.25;;;;;;;21.31;39.64;102111.97;4955824;29;20035;-76
2021/11/06 04:35:00;;;;;;;6.35;4.03;;;;;;;21.40;39.40;102107.09;4955762;29;20034;-75
2021/11/06 04:37:26;;;;;;;5.30;3.95;;;;;;;21.49;39.10;102101.38;4955700;29;20085;-78
2021/11/06 04:39:51;;;;;;;6.13;3.67;;;;;;;21.34;39.64;102100.16;4955725;29;20469;-79
2021/11/06 04:42:17;;;;;;;7.75;3.53;;;;;;;21.42;39.52;102104.78;4955636;29;20030;-76
2021/11/06 04:44:42;;;;;;;5.65;3.22;;;;;;;21.46;39.44;102093.72;4955589;29;20110;-76
2021/11/06 04:47:08;;;;;;;6.75;3.45;;;;;;;21.43;39.34;102089.69;4955073;29;20110;-76
2021/11/06 04:49:34;;;;;;;4.93;3.17;;;;;;;21.40;39.22;102095.19;4955594;29;20035;-76
2021/11/06 04:51:59;;;;;;;5.22;3.25;;;;;;;21.28;39.69;102090.47;4955522;29;20035;-75
2021/11/06 04:54:25;;;;;;;6.63;3.17;;;;;;;21.25;39.81;102089.16;4955453;29;20042;-76
2021/11/06 04:56:50;;;;;;;7.95;2.83;;;;;;;21.24;39.64;102078.41;4955406;29;20500;-75
2021/11/06 04:59:17;;;;;;;5.32;2.50;;;;;;;21.34;39.56;102080.72;4955324;29;20106;-75
2021/11/06 05:01:42;;;;;;;3.67;2.88;;;;;;;21.39;39.30;102083.25;4955281;29;20023;-79
2021/11/06 05:04:08;;;;;;;5.57;2.88;;;;;;;21.36;39.48;102086.72;4953988;29;20058;-76
2021/11/06 05:06:34;;;;;;;4.43;2.60;;;;;;;21.28;39.46;102077.38;4955226;29;20063;-80
2021/11/06 05:08:59;;;;;;;3.42;2.58;;;;;;;21.10;39.77;102067.69;4955143;29;20114;-78
2021/11/06 05:11:25;;;;;;;3.80;2.85;;;;;;;21.22;39.66;102072.38;4954889;29;20054;-77
2021/11/06 05:13:51;;;;;;;3.63;2.88;;;;;;;20.82;40.55;102070.41;4937824;29;20370;-80
2021/11/06 05:16:17;;;;;;;4.75;2.70;;;;;;;20.89;40.31;102067.84;4954818;29;20093;-78
2021/11/06 05:18:43;;;;;;;4.28;2.70;;;;;;;20.86;40.36;102070.53;4969770;28;20074;-78
2021/11/06 05:21:09;;;;;;;4.63;2.60;;;;;;;21.12;39.75;102067.34;4954944;29;20031;-79
2021/11/06 05:23:35;;;;;;;4.90;2.70;;;;;;;21.00;40.13;102065.38;4954748;29;20035;-77
2021/11/06 05:26:02;;;;;;;3.83;2.15;;;;;;;21.06;39.84;102062.00;4953488;29;20042;-79
2021/11/06 05:28:28;;;;;;;2.88;2.00;;;;;;;21.01;40.17;102059.50;4953890;28;20473;-79
2021/11/06 05:30:54;;;;;;;2.95;1.92;;;;;;;21.06;40.24;102056.44;4954871;29;20111;-80
2021/11/06 05:33:19;;;;;;;2.85;1.75;;;;;;;21.10;39.84;102050.22;4953561;29;20039;-78
2021/11/06 05:35:45;;;;;;;3.15;2.03;;;;;;;21.18;39.84;102041.72;4954730;29;20082;-79
2021/11/06 05:38:11;;;;;;;2.55;1.90;;;;;;;21.23;39.76;102044.22;4954665;29;20061;-78
2021/11/06 05:40:37;;;;;;;3.85;1.58;;;;;;;21.23;39.68;102035.06;4954671;29;20034;-76
2021/11/06 05:43:03;;;;;;;3.92;1.70;;;;;;;21.24;39.66;102037.53;4954679;29;20068;-76
2021/11/06 05:45:28;;;;;;;2.78;1.60;;;;;;;21.11;39.74;102027.63;4954639;29;20501;-76
2021/11/06 05:47:54;;;;;;;3.25;1.88;;;;;;;21.08;39.69;102017.19;4954565;29;20046;-80
2021/11/06 05:50:20;;;;;;;1.45;1.35;;;;;;;21.12;39.75;102014.53;4954648;29;20466;-75
2021/11/06 05:52:45;;;;;;;2.30;1.00;;;;;;;21.09;39.75;102006.91;4954570;29;20046;-76
2021/11/06 05:55:14;;;;;;;2.53;1.30;;;;;;;21.14;39.62;102009.41;4954557;29;20053;-75
2021/11/06 05:57:40;;;;;;;4.50;1.83;;;;;;;21.31;39.31;102000.78;4954348;29;20039;-75
2021/11/06 06:00:13;;;;;;;3.22;1.30;;;;;;;21.18;39.59;101991.69;4954442;29;20023;-75
2021/11/06 06:02:39;;;;;;;4.05;1.52;;;;;;;21.16;39.55;102009.88;4954380;29;20188;-75
2021/11/06 06:05:06;;;;;;;12.70;2.42;;;;;;;21.16;39.65;102007.91;4954451;29;20446;-75
2021/11/06 06:07:32;;;;;;;6.50;1.50;;;;;;;21.19;39.72;102000.84;4954351;29;20031;-75
2021/11/06 06:09:57;;;;;;;1.60;1.00;;;;;;;21.10;39.52;101987.09;4954108;29;20047;-75
2021/11/06 06:12:23;;;;;;;1.58;1.10;;;;;;;21.02;39.78;101986.09;4954330;29;20117;-78
2021/11/06 06:14:49;;;;;;;1.83;1.05;;;;;;;21.08;39.61;101986.63;4954301;29;20518;-75
2021/11/06 06:17:14;;;;;;;2.53;1.17;;;;;;;21.13;39.55;101994.72;4954340;29;20408;-75
2021/11/06 06:19:40;;;;;;;1.75;1.08;;;;;;;21.16;39.48;101987.63;4954224;29;20024;-76
2021/11/06 06:22:05;;;;;;;2.35;1.20;;;;;;;20.94;40.06;101975.94;4954291;29;20109;-76
2021/11/06 06:24:31;;;;;;;2.70;1.48;;;;;;;20.97;40.09;101983.56;4954175;29;20485;-76
2021/11/06 06:26:57;;;;;;;2.13;0.82;;;;;;;20.90;39.92;101982.53;4954208;29;20429;-75
2021/11/06 06:29:22;;;;;;;3.03;1.20;;;;;;;20.81;39.95;101973.56;4954176;29;20020;-76
2021/11/06 06:31:48;;;;;;;1.35;0.95;;;;;;;20.90;39.86;101983.34;4954229;29;20023;-75
2021/11/06 06:34:13;;;;;;;1.75;1.17;;;;;;;21.05;39.82;101979.81;4954202;29;20045;-75
2021/11/06 06:36:39;;;;;;;4.25;1.33;;;;;;;20.75;40.27;101975.78;4954163;29;20023;-76
2021/11/06 06:39:05;;;;;;;1.70;0.90;;;;;;;20.74;40.34;101972.19;4954131;28;20031;-80
2021/11/06 06:41:30;;;;;;;1.33;1.15;;;;;;;20.75;40.26;101965.47;4957611;29;20023;-75
2021/11/06 06:43:56;;;;;;;4.82;1.65;;;;;;;20.84;40.09;101962.53;4957771;29;20027;-76
2021/11/06 06:46:22;;;;;;;4.95;1.00;;;;;;;21.00;39.73;101948.69;4957095;29;20062;-79
2021/11/06 06:48:48;;;;;;;3.30;1.10;;;;;;;20.99;39.79;101939.53;4957732;29;20051;-79
2021/11/06 06:51:15;;;;;;;4.82;1.33;;;;;;;21.04;39.73;101933.75;4957364;29;20031;-80
2021/11/06 06:53:42;;;;;;;2.55;1.30;;;;;;;20.60;40.59;101935.66;4957624;29;20035;-76
2021/11/06 06:56:08;;;;;;;1.83;1.17;;;;;;;20.69;40.54;101936.31;4957412;29;20053;-75
2021/11/06 06:58:33;;;;;;;2.08;1.10;;;;;;;21.03;39.75;101948.00;4957213;29;20039;-79
2021/11/06 07:00:59;;;;;;;2.15;1.08;;;;;;;20.86;40.26;101931.66;4957323;28;20031;-78
2021/11/06 07:03:25;;;;;;;4.50;1.30;;;;;;;21.06;39.76;101928.63;4957287;29;20043;-78
2021/11/06 07:05:50;;;;;;;2.22;1.42;;;;;;;21.15;39.58;101928.47;4956917;29;20037;-79
2021/11/06 07:08:16;;;;;;;4.82;1.30;;;;;;;21.05;39.78;101924.25;4957015;29;20439;-79
2021/11/06 07:10:42;;;;;;;3.58;1.15;;;;;;;20.93;40.08;101923.50;4957055;29;20051;-78
2021/11/06 07:13:07;;;;;;;2.03;1.10;;;;;;;21.12;39.67;101912.50;4957201;29;20043;-77
2021/11/06 07:15:33;;;;;;;1.25;1.00;;;;;;;20.91;40.03;101903.59;4957152;29;20078;-79
2021/11/06 07:17:58;;;;;;;1.73;0.80;;;;;;;20.91;39.85;101907.19;4957136;28;20032;-79
2021/11/06 07:20:24;;;;;;;3.40;1.02;;;;;;;21.11;39.59;101898.97;4956687;29;20031;-79
2021/11/06 07:22:50;;;;;;;3.70;1.48;;;;;;;21.08;39.72;101899.66;4955719;29;20485;-76
2021/11/06 07:25:16;;;;;;;1.88;1.20;;;;;;;21.05;39.73;101893.69;4955688;29;20031;-78
2021/11/06 07:27:41;;;;;;;1.30;0.93;;;;;;;21.14;39.48;101895.47;4956892;29;20105;-76
2021/11/06 07:30:08;;;;;;;3.05;1.10;;;;;;;21.10;39.61;101877.91;4957020;29;20111;-79
2021/11/06 07:32:34;;;;;;;2.08;0.80;;;;;;;21.11;39.51;101885.88;4956866;28;20050;-80
2021/11/06 07:35:01;;;;;;;1.73;0.80;;;;;;;21.18;39.37;101891.63;4956815;28;20466;-78
2021/11/06 07:37:26;;;;;;;1.83;0.80;;;;;;;21.21;39.45;101876.22;4956795;29;20039;-78
2021/11/06 07:39:52;;;;;;;2.15;1.00;;;;;;;21.03;39.79;101876.56;4956861;28;20111;-75
2021/11/06 07:42:18;;;;;;;2.92;0.70;;;;;;;20.91;39.98;101878.59;4956776;29;20035;-79
2021/11/06 07:44:43;;;;;;;5.20;1.33;;;;;;;21.12;39.61;101873.59;4956646;28;20446;-77
2021/11/06 07:47:09;;;;;;;4.85;1.10;;;;;;;21.05;39.77;101874.22;4956608;29;20027;-75
2021/11/06 07:49:34;;;;;;;4.38;1.08;;;;;;;21.18;39.32;101866.63;4956664;28;20046;-75
2021/11/06 07:52:00;;;;;;;1.80;0.98;;;;;;;21.05;39.78;101868.66;4955560;28;20031;-75
2021/11/06 07:54:27;;;;;;;2.33;0.80;;;;;;;21.07;39.71;101868.31;4956816;28;20106;-91
2021/11/06 07:56:53;;;;;;;2.60;1.00;;;;;;;21.18;39.54;101863.03;4940503;29;20031;-79
2021/11/06 07:59:23;;;;;;;4.82;1.17;;;;;;;21.06;39.85;101847.25;4959855;28;20462;-94
2021/11/06 08:01:49;;;;;;;1.10;0.90;;;;;;;21.14;39.65;101826.00;4956430;29;20142;-78
2021/11/06 08:04:14;;;;;;;2.92;1.10;;;;;;;21.20;39.57;101824.56;4956156;29;20114;-76
2021/11/06 08:06:40;;;;;;;4.20;1.40;;;;;;;21.44;39.06;101818.81;4956169;28;20035;-77
2021/11/06 08:09:06;;;;;;;1.27;0.80;;;;;;;21.36;39.28;101819.81;4956301;28;20042;-78
2021/11/06 08:11:31;;;;;;;2.10;1.00;;;;;;;21.28;39.45;101818.84;4955800;28;20447;-81
2021/11/06 08:13:57;;;;;;;1.60;1.00;;;;;;;21.30;39.46;101810.16;4956139;28;20039;-76
2021/11/06 08:16:23;;;;;;;3.95;1.30;;;;;;;21.36;39.51;101796.78;4956238;28;20078;-76
2021/11/06 08:18:50;;;;;;;2.35;1.10;;;;;;;21.35;39.48;101779.31;4952203;28;20043;-76
2021/11/06 08:21:16;;;;;;;1.02;0.80;;;;;;;21.41;39.48;101763.16;4956374;28;20023;-76
2021/11/06 08:23:42;;;;;;;5.35;1.92;;;;;;;21.19;39.90;101764.59;4950265;28;20043;-75
2021/11/06 08:26:08;;;;;;;7.65;4.97;;;;;;;21.35;39.56;101759.84;4948719;28;20049;-77
2021/11/06 08:28:39;;;;;;;0.88;0.88;;;;;;;21.00;40.13;101738.34;4951004;28;20023;-76
2021/11/06 08:31:06;;;;;;;2.88;1.10;;;;;;;21.25;39.51;101749.25;4949557;28;20077;-76
2021/11/06 08:33:33;;;;;;;4.85;1.20;;;;;;;21.09;40.02;101740.16;4953056;28;20031;-75
2021/11/06 08:36:01;;;;;;;1.00;0.80;;;;;;;21.23;39.58;101718.22;4952967;28;20079;-76
2021/11/06 08:38:33;;;;;;;1.42;0.80;;;;;;;21.16;39.79;101720.84;4950123;28;20110;-75
2021/11/06 08:41:01;;;;;;;2.13;0.82;;;;;;;21.27;39.37;101705.22;4952818;28;20137;-74
2021/11/06 08:43:27;;;;;;;4.03;1.10;;;;;;;21.22;39.59;101688.81;4949775;29;20092;-85
2021/11/06 08:45:54;;;;;;;2.90;0.80;;;;;;;21.11;39.99;101694.16;4952301;29;20031;-71
2021/11/06 08:48:21;;;;;;;1.23;0.60;;;;;;;21.12;40.12;101692.97;4952389;28;21384;-72
2021/11/06 08:50:48;;;;;;;2.45;0.77;;;;;;;21.11;40.14;101679.44;4949280;29;20060;-73
2021/11/06 08:53:14;;;;;;;4.07;0.85;;;;;;;21.33;39.65;101687.94;4950787;28;20031;-84
2021/11/06 08:55:41;;;;;;;3.33;0.70;;;;;;;21.35;39.36;101678.44;4951979;28;20122;-81
2021/11/06 08:58:07;;;;;;;1.60;0.90;;;;;;;21.06;40.41;101695.22;4950339;28;20549;-71
2021/11/06 09:00:40;;;;;;;3.50;0.95;;;;;;;21.01;40.26;101675.25;4951905;29;20090;-72
2021/11/06 09:03:10;;;;;;;2.38;0.90;;;;;;;21.34;39.69;101677.63;4950091;28;20015;-77
2021/11/06 09:05:38;;;;;;;1.23;0.80;;;;;;;21.23;40.05;101673.75;4952316;28;20474;-73
2021/11/06 09:08:05;;;;;;;7.80;2.22;;;;;;;21.28;39.72;101654.84;4951389;28;20019;-73
2021/11/06 09:10:31;;;;;;;1.52;0.80;;;;;;;21.30;40.16;101637.81;4951801;28;20119;-71
2021/11/06 09:12:57;;;;;;;4.28;0.95;;;;;;;21.29;40.30;101628.66;4952649;29;20023;-74
2021/11/06 09:15:23;;;;;;;2.05;0.82;;;;;;;21.16;40.57;101623.56;4952170;28;20521;-76
2021/11/06 09:17:51;;;;;;;0.77;0.55;;;;;;;21.19;40.61;101623.66;4952476;29;20151;-81
2021/11/06 09:20:17;;;;;;;3.05;1.00;;;;;;;21.12;40.64;101634.63;4952272;28;20047;-71
2021/11/06 09:22:42;;;;;;;3.25;0.90;;;;;;;20.69;41.45;101633.63;4952838;28;20038;-69
2021/11/06 09:25:09;;;;;;;2.78;0.98;;;;;;;21.24;40.50;101606.72;4952578;28;20048;-71
2021/11/06 09:27:36;;;;;;;1.50;0.52;;;;;;;21.09;40.83;101621.47;4951503;28;20027;-71
2021/11/06 09:30:06;;;;;;;1.77;0.80;;;;;;;20.83;41.43;101599.84;4951116;28;20031;-70
2021/11/06 09:32:31;;;;;;;2.03;0.77;;;;;;;21.06;41.08;101622.16;4953918;28;20039;-74
2021/11/06 09:34:57;;;;;;;1.75;0.60;;;;;;;21.46;40.25;101619.13;4951678;28;20110;-70
2021/11/06 09:37:23;;;;;;;5.53;1.30;;;;;;;21.40;40.27;101619.75;4927809;29;20046;-71
2021/11/06 09:39:48;;;;;;;3.10;0.95;;;;;;;21.56;40.12;101615.72;4953729;28;20544;-73
2021/11/06 09:42:14;;;;;;;1.52;0.90;;;;;;;21.50;40.23;101611.63;4952438;29;20534;-70
2021/11/06 09:44:41;;;;;;;0.98;0.70;;;;;;;21.16;40.84;101606.91;4935370;29;20398;-76
2021/11/06 09:47:12;;;;;;;3.05;0.75;;;;;;;21.53;40.25;101610.88;4943452;29;20528;-71
2021/11/06 09:49:39;;;;;;;2.03;0.80;;;;;;;21.66;40.10;101594.06;4952924;29;20027;-72
2021/11/06 09:52:06;;;;;;;1.90;0.80;;;;;;;21.69;39.98;101604.44;4952037;29;20516;-72
2021/11/06 09:54:33;;;;;;;2.10;0.80;;;;;;;21.76;39.67;101601.78;4952489;29;20019;-71
2021/11/06 09:56:59;;;;;;;3.00;1.10;;;;;;;21.75;40.17;101600.19;4950802;28;20038;-70
2021/11/06 09:59:27;;;;;;;6.05;1.20;;;;;;;21.67;40.53;101601.22;4964000;28;20441;-73
2021/11/06 10:01:53;;;;;;;5.60;1.02;;;;;;;22.02;39.98;101582.41;4958451;28;20102;-71
2021/11/06 10:04:18;;;;;;;4.40;1.10;;;;;;;22.22;39.80;101562.88;4950838;28;20114;-72
2021/11/06 10:06:45;;;;;;;6.22;1.42;;;;;;;22.05;40.00;101564.16;4950955;28;20170;-73
2021/11/06 10:09:13;;;;;;;4.00;1.05;;;;;;;22.28;39.87;101544.69;4950885;28;20536;-70
2021/11/06 10:11:43;;;;;;;3.72;1.27;;;;;;;22.22;39.78;101551.75;4951022;28;20506;-71
2021/11/06 10:14:15;;;;;;;3.45;0.98;;;;;;;22.42;39.76;101540.16;4951644;28;20070;-71
2021/11/06 10:16:46;;;;;;;3.00;0.80;;;;;;;22.53;39.62;101529.19;4952314;28;20032;-72
2021/11/06 10:19:16;;;;;;;1.38;0.90;;;;;;;21.94;40.32;101535.38;4956346;29;20373;-70
2021/11/06 10:22:04;;;;;;;3.75;1.08;;;;;;;22.56;39.37;101555.47;4956900;29;20050;-70
2021/11/06 10:24:57;;;;;;;5.38;1.02;;;;;;;22.60;38.89;101553.56;4956865;29;20051;-72
2021/11/06 10:27:26;;;;;;;1.73;0.70;;;;;;;22.74;39.08;101545.38;4955698;28;20039;-72
2021/11/06 10:30:08;;;;;;;5.05;1.35;;;;;;;22.76;39.20;101531.09;4958212;29;20027;-71
2021/11/06 10:32:35;;;;;;;5.00;1.42;;;;;;;22.67;39.01;101543.31;4944582;29;20038;-70
2021/11/06 10:35:25;;;;;;;8.68;2.63;;;;;;;22.81;38.92;101534.34;4957031;29;20028;-71
2021/11/06 10:38:02;;;;;;;3.85;1.00;;;;;;;22.66;39.14;101538.91;4957117;29;20034;-70
2021/11/06 10:40:30;;;;;;;6.50;1.77;;;;;;;22.33;39.96;101552.75;4956761;29;20074;-69
2021/11/06 10:42:58;;;;;;;7.38;2.03;;;;;;;22.75;39.38;101546.19;4957002;29;20044;-70
2021/11/06 10:45:28;;;;;;;5.20;0.98;;;;;;;23.18;38.76;101542.81;4957644;28;20382;-70
2021/11/06 10:48:08;;;;;;;4.90;1.38;;;;;;;22.66;39.86;101555.63;4956839;29;20028;-70
2021/11/06 10:50:48;;;;;;;2.40;0.98;;;;;;;22.88;39.41;101548.41;4957692;29;20552;-70
2021/11/06 10:53:34;;;;;;;6.47;1.10;;;;;;;22.98;39.17;101549.75;4957197;29;20485;-74
2021/11/06 10:56:02;;;;;;;1.90;0.80;;;;;;;23.07;39.00;101549.44;4954511;29;20027;-75
2021/11/06 10:58:31;;;;;;;5.22;1.38;;;;;;;22.97;39.30;101553.69;4956021;29;20140;-70
2021/11/06 11:01:04;;;;;;;4.30;0.80;;;;;;;22.73;39.51;101562.47;4956346;28;20470;-70
2021/11/06 11:03:38;;;;;;;4.85;1.27;;;;;;;23.01;39.29;101562.91;4955928;29;20105;-70
2021/11/06 11:06:16;;;;;;;2.60;1.15;;;;;;;22.94;39.67;101573.97;4956056;29;20023;-71
2021/11/06 11:08:53;;;;;;;4.03;1.02;;;;;;;22.84;39.90;101567.03;4955796;29;20058;-74
2021/11/06 11:11:21;;;;;;;7.70;1.27;;;;;;;22.83;40.27;101565.44;4957100;29;20043;-75
2021/11/06 11:14:10;;;;;;;2.78;0.98;;;;;;;22.86;40.09;101564.69;4957041;29;20493;-79
2021/11/06 11:16:36;;;;;;;4.55;1.23;;;;;;;22.55;41.29;101574.16;4956085;29;20023;-74
2021/11/06 11:19:11;;;;;;;3.70;1.02;;;;;;;22.37;41.83;101575.88;4956872;29;20393;-74
2021/11/06 11:21:45;;;;;;;3.53;1.20;;;;;;;22.86;41.10;101569.47;4955171;29;20024;-74
2021/11/06 11:24:18;;;;;;;3.15;1.23;;;;;;;22.26;42.75;101570.13;4956083;29;20743;-75
2021/11/06 11:26:49;;;;;;;2.45;1.08;;;;;;;22.23;42.87;101553.38;4956178;28;20023;-74